createdAt,value
2022-11-14T00:02:06.211Z,7.45
2022-11-14T00:04:38.334Z,7.40
2022-11-14T00:07:07.821Z,7.18
2022-11-14T00:09:38.672Z,7.28
2022-11-14T00:12:08.688Z,6.78
2022-11-14T00:14:38.291Z,6.95
2022-11-14T00:17:07.997Z,7.45
2022-11-14T00:19:40.033Z,7.35
2022-11-14T00:22:09.547Z,7.47
2022-11-14T00:24:39.041Z,8.55
2022-11-14T00:27:08.533Z,8.75
2022-11-14T00:29:38.653Z,7.72
2022-11-14T00:32:08.707Z,8.20
2022-11-14T00:34:40.805Z,9.50
2022-11-14T00:37:10.251Z,9.00
2022-11-14T00:39:39.705Z,8.60
2022-11-14T00:42:09.285Z,8.95
2022-11-14T00:44:38.773Z,8.50
2022-11-14T00:47:08.385Z,7.90
2022-11-14T00:49:40.484Z,8.15
2022-11-14T00:52:09.984Z,7.93
2022-11-14T00:54:39.430Z,8.02
2022-11-14T00:57:09.064Z,7.75
2022-11-14T00:59:38.525Z,8.05
2022-11-14T01:02:08.029Z,8.30
2022-11-14T01:04:40.125Z,8.75
2022-11-14T01:07:09.641Z,8.32
2022-11-14T01:09:39.274Z,8.40
2022-11-14T01:12:08.801Z,7.90
2022-11-14T01:14:54.785Z,7.68
2022-11-14T01:17:24.408Z,8.13
2022-11-14T01:19:56.491Z,8.43
2022-11-14T01:22:25.987Z,8.15
2022-11-14T01:24:58.362Z,7.90
2022-11-14T01:27:27.950Z,7.70
2022-11-14T01:29:57.490Z,8.02
2022-11-14T01:32:26.969Z,7.45
2022-11-14T01:34:59.065Z,8.20
2022-11-14T01:37:28.562Z,7.93
2022-11-14T01:39:58.093Z,8.63
2022-11-14T01:42:27.773Z,7.95
2022-11-14T01:44:57.272Z,8.20
2022-11-14T01:47:28.522Z,8.63
2022-11-14T01:50:01.616Z,8.20
2022-11-14T01:52:31.909Z,8.90
2022-11-14T01:55:03.054Z,8.50
2022-11-14T02:00:04.395Z,9.90
2022-11-14T02:02:33.893Z,9.80
2022-11-14T02:05:08.256Z,10.50
2022-11-14T02:07:40.355Z,10.20
2022-11-14T02:10:11.881Z,10.73
2022-11-14T02:12:41.356Z,10.45
2022-11-14T02:15:11.921Z,12.15
2022-11-14T02:17:41.413Z,11.10
2022-11-14T02:20:24.299Z,12.52
2022-11-14T02:22:53.744Z,11.57
2022-11-14T02:25:23.273Z,11.10
2022-11-14T02:27:52.825Z,11.65
2022-11-14T02:30:23.841Z,11.63
2022-11-14T02:35:45.382Z,12.05
2022-11-14T02:38:14.883Z,11.75
2022-11-14T02:40:44.350Z,12.70
2022-11-14T02:43:13.805Z,13.57
2022-11-14T02:45:43.287Z,13.02
2022-11-14T02:48:12.775Z,14.45
2022-11-14T02:50:44.834Z,14.82
2022-11-14T02:53:14.309Z,15.50
2022-11-14T02:55:43.829Z,16.10
2022-11-14T02:58:13.304Z,16.77
2022-11-14T03:01:05.994Z,17.48
2022-11-14T03:03:32.299Z,19.27
2022-11-14T03:06:05.060Z,18.08
2022-11-14T03:08:34.577Z,17.92
2022-11-14T03:11:06.928Z,17.95
2022-11-14T03:13:36.497Z,18.55
2022-11-14T03:16:10.051Z,18.10
2022-11-14T03:18:39.536Z,18.38
2022-11-14T03:21:11.968Z,18.90
2022-11-14T03:23:41.475Z,18.55
2022-11-14T03:26:11.840Z,18.35
2022-11-14T03:28:41.815Z,18.60
2022-11-14T03:31:12.475Z,19.67
2022-11-14T03:33:41.969Z,20.15
2022-11-14T03:36:14.072Z,20.52
2022-11-14T03:38:43.666Z,19.25
2022-11-14T03:41:13.549Z,19.05
2022-11-14T03:43:42.991Z,19.33
2022-11-14T03:46:12.446Z,19.55
2022-11-14T03:48:42.213Z,18.60
2022-11-14T03:51:14.300Z,20.15
2022-11-14T03:53:44.328Z,19.45
2022-11-14T03:56:13.902Z,19.45
2022-11-14T03:58:46.610Z,19.90
2022-11-14T04:01:16.850Z,18.75
2022-11-14T04:03:46.416Z,20.13
2022-11-14T04:06:18.963Z,19.38
2022-11-14T04:08:51.942Z,18.88
2022-11-14T04:11:22.059Z,18.35
2022-11-14T04:13:51.542Z,18.85
2022-11-14T04:16:21.029Z,18.50
2022-11-14T04:18:50.529Z,19.17
2022-11-14T04:21:22.634Z,17.98
2022-11-14T04:23:52.382Z,18.25
2022-11-14T04:26:21.925Z,16.90
2022-11-14T04:28:51.433Z,18.08
2022-11-14T04:31:20.899Z,17.45
2022-11-14T04:33:50.409Z,17.40
2022-11-14T04:36:22.485Z,17.02
2022-11-14T04:38:51.971Z,17.63
2022-11-14T04:41:21.449Z,17.50
2022-11-14T04:43:51.218Z,18.00
2022-11-14T04:46:20.743Z,17.38
2022-11-14T04:48:50.248Z,16.63
2022-11-14T04:51:22.319Z,16.98
2022-11-14T04:53:51.844Z,18.52
2022-11-14T04:56:23.227Z,17.98
2022-11-14T04:58:52.753Z,17.42
2022-11-14T05:01:22.300Z,17.60
2022-11-14T05:03:51.857Z,18.02
2022-11-14T05:06:23.946Z,17.38
2022-11-14T05:08:53.417Z,16.83
2022-11-14T05:11:27.958Z,17.48
2022-11-14T05:13:58.623Z,18.08
2022-11-14T05:16:28.125Z,17.42
2022-11-14T05:18:57.632Z,18.67
2022-11-14T05:21:29.691Z,20.33
2022-11-14T05:23:59.173Z,20.45
2022-11-14T05:26:28.660Z,20.88
2022-11-14T05:28:58.162Z,21.13
2022-11-14T05:31:27.676Z,20.33
2022-11-14T05:33:57.161Z,19.63
2022-11-14T05:36:29.224Z,19.77
2022-11-14T05:38:58.708Z,19.77
2022-11-14T05:41:28.211Z,20.85
2022-11-14T05:43:57.725Z,20.05
2022-11-14T05:46:27.256Z,20.20
2022-11-14T05:48:57.002Z,21.55
2022-11-14T05:51:29.080Z,21.92
2022-11-14T05:53:58.567Z,23.17
2022-11-14T05:56:28.046Z,21.83
2022-11-14T05:58:57.551Z,23.45
2022-11-14T06:01:27.921Z,23.15
2022-11-14T06:03:57.423Z,21.08
2022-11-14T06:06:29.493Z,20.40
2022-11-14T06:08:58.965Z,21.70
2022-11-14T06:11:28.450Z,21.40
2022-11-14T06:13:57.930Z,22.00
2022-11-14T06:16:27.412Z,21.90
2022-11-14T06:18:57.252Z,21.83
2022-11-14T06:21:29.323Z,22.27
2022-11-14T06:23:58.838Z,21.23
2022-11-14T06:26:30.272Z,21.92
2022-11-14T06:29:00.261Z,21.05
2022-11-14T06:31:29.940Z,20.30
2022-11-14T06:33:59.553Z,20.63
2022-11-14T06:36:32.343Z,22.20
2022-11-14T06:39:01.890Z,20.70
2022-11-14T06:41:31.371Z,21.80
2022-11-14T06:44:00.868Z,20.75
2022-11-14T06:46:30.365Z,21.65
2022-11-14T06:48:59.855Z,20.92
2022-11-14T06:51:31.927Z,21.20
2022-11-14T06:54:01.461Z,20.98
2022-11-14T06:56:31.031Z,21.13
2022-11-14T06:59:00.532Z,22.45
2022-11-14T07:01:30.032Z,22.83
2022-11-14T07:04:00.703Z,23.15
2022-11-14T07:06:33.312Z,22.75
2022-11-14T07:09:02.780Z,22.30
2022-11-14T07:11:33.215Z,22.50
2022-11-14T07:14:03.142Z,22.30
2022-11-14T07:16:34.972Z,23.02
2022-11-14T07:19:05.033Z,22.55
2022-11-14T07:21:37.319Z,21.80
2022-11-14T07:24:07.337Z,21.42
2022-11-14T07:26:36.913Z,21.52
2022-11-14T07:29:06.379Z,20.73
2022-11-14T07:31:35.905Z,21.80
2022-11-14T07:34:06.103Z,20.23
2022-11-14T07:36:38.179Z,20.70
2022-11-14T07:39:07.640Z,24.70
2022-11-14T07:41:37.106Z,30.85
2022-11-14T07:44:07.102Z,24.02
2022-11-14T07:46:36.637Z,22.45
2022-11-14T07:49:06.184Z,22.83
2022-11-14T07:51:38.294Z,22.80
2022-11-14T07:54:07.887Z,19.75
2022-11-14T07:56:37.372Z,22.38
2022-11-14T07:59:06.930Z,24.38
2022-11-14T08:01:36.452Z,19.50
2022-11-14T08:04:06.025Z,22.33
2022-11-14T08:06:38.097Z,20.95
2022-11-14T08:09:07.567Z,29.85
2022-11-14T08:11:52.131Z,32.47
2022-11-14T08:14:21.637Z,22.35
2022-11-14T08:16:51.149Z,20.08
2022-11-14T08:19:20.921Z,19.85
2022-11-14T08:21:52.990Z,19.27
2022-11-14T08:24:22.522Z,18.58
2022-11-14T08:26:51.991Z,18.73
2022-11-14T08:29:21.507Z,19.55
2022-11-14T08:31:54.486Z,19.65
2022-11-14T08:34:29.197Z,20.55
2022-11-14T08:37:01.226Z,20.00
2022-11-14T08:39:30.748Z,20.23
2022-11-14T08:42:00.243Z,19.10
2022-11-14T08:44:29.713Z,18.73
2022-11-14T08:47:00.371Z,19.88
2022-11-14T08:49:29.931Z,19.25
2022-11-14T08:52:01.996Z,19.85
2022-11-14T08:54:31.896Z,20.20
2022-11-14T08:57:01.373Z,18.58
2022-11-14T08:59:30.856Z,18.38
2022-11-14T09:02:00.401Z,19.85
2022-11-14T09:04:29.892Z,20.67
2022-11-14T09:07:02.037Z,20.20
2022-11-14T09:09:31.536Z,20.15
2022-11-14T09:12:00.998Z,19.98
2022-11-14T09:14:30.473Z,19.45
2022-11-14T09:17:05.539Z,19.83
2022-11-14T09:19:35.504Z,19.00
2022-11-14T09:22:07.558Z,18.85
2022-11-14T09:24:37.076Z,19.48
2022-11-14T09:27:06.641Z,19.77
2022-11-14T09:29:36.214Z,20.05
2022-11-14T09:32:05.837Z,20.25
2022-11-14T09:34:37.212Z,18.83
2022-11-14T09:37:09.276Z,19.45
2022-11-14T09:39:40.725Z,19.25
2022-11-14T09:42:18.764Z,19.05
2022-11-14T09:44:57.698Z,19.60
2022-11-14T09:47:28.743Z,17.63
2022-11-14T09:49:59.355Z,19.20
2022-11-14T09:52:36.477Z,21.15
2022-11-14T09:55:11.845Z,21.42
2022-11-14T09:57:41.531Z,21.60
2022-11-14T10:00:18.881Z,18.88
2022-11-14T10:02:58.418Z,20.40
2022-11-14T10:05:39.077Z,21.05
2022-11-14T10:08:27.672Z,20.88
2022-11-14T10:10:57.723Z,19.63
2022-11-14T10:13:33.982Z,20.35
2022-11-14T10:16:06.050Z,20.00
2022-11-14T10:18:42.212Z,22.52
2022-11-14T10:21:19.391Z,26.02
2022-11-14T10:23:54.908Z,19.45
2022-11-14T10:26:30.144Z,19.08
2022-11-14T10:29:14.855Z,19.73
2022-11-14T10:31:48.262Z,18.80
2022-11-14T10:34:20.653Z,22.70
2022-11-14T10:36:59.044Z,19.73
2022-11-14T10:39:33.489Z,20.50
2022-11-14T10:42:07.847Z,19.73
2022-11-14T10:44:39.762Z,19.60
2022-11-14T10:47:10.133Z,17.98
2022-11-14T10:49:39.851Z,19.80
2022-11-14T10:52:10.357Z,18.85
2022-11-14T10:54:43.893Z,18.45
2022-11-14T10:57:20.331Z,19.08
2022-11-14T10:59:50.021Z,19.00
2022-11-14T11:02:19.895Z,21.77
2022-11-14T11:04:49.484Z,19.95
2022-11-14T11:07:38.826Z,18.58
2022-11-14T11:10:34.668Z,18.58
2022-11-14T11:13:06.940Z,19.05
2022-11-14T11:15:42.743Z,18.48
2022-11-14T11:18:29.745Z,18.48
2022-11-14T11:21:10.635Z,18.88
2022-11-14T11:23:53.237Z,19.65
2022-11-14T11:26:26.415Z,17.73
2022-11-14T11:29:10.513Z,17.77
2022-11-14T11:31:52.901Z,21.90
2022-11-14T11:34:25.540Z,16.38
2022-11-14T11:36:56.990Z,18.05
2022-11-14T11:39:28.184Z,17.45
2022-11-14T11:42:09.829Z,16.98
2022-11-14T11:44:42.784Z,17.10
2022-11-14T11:47:13.914Z,17.40
2022-11-14T11:52:22.774Z,16.60
2022-11-14T11:54:56.320Z,17.08
2022-11-14T11:57:32.279Z,16.70
2022-11-14T12:00:06.590Z,16.02
2022-11-14T12:02:36.152Z,16.33
2022-11-14T12:05:05.944Z,16.10
2022-11-14T12:07:39.990Z,17.08
2022-11-14T12:10:14.552Z,16.85
2022-11-14T12:13:02.627Z,17.50
2022-11-14T12:15:34.789Z,17.45
2022-11-14T12:18:38.163Z,16.88
2022-11-14T12:21:19.693Z,16.95
2022-11-14T12:24:10.196Z,16.13
2022-11-14T12:26:47.982Z,15.48
2022-11-14T12:29:28.416Z,16.50
2022-11-14T12:31:59.895Z,15.57
2022-11-14T12:34:30.268Z,15.75
2022-11-14T12:36:59.783Z,16.08
2022-11-14T12:39:30.132Z,16.38
2022-11-14T12:42:05.462Z,16.37
2022-11-14T12:44:39.234Z,16.13
2022-11-14T12:47:19.721Z,15.95
2022-11-14T12:50:09.004Z,16.35
2022-11-14T12:52:52.952Z,16.23
2022-11-14T12:56:09.917Z,16.10
2022-11-14T12:58:51.348Z,14.65
2022-11-14T13:01:35.489Z,14.60
2022-11-14T13:04:12.214Z,13.95
2022-11-14T13:06:46.070Z,13.88
2022-11-14T13:09:36.548Z,13.57
2022-11-14T13:12:42.837Z,13.83
2022-11-14T13:15:37.369Z,15.07
2022-11-14T13:18:28.025Z,15.60
2022-11-14T13:21:16.728Z,14.52
2022-11-14T13:23:59.217Z,14.65
2022-11-14T13:26:44.434Z,15.63
2022-11-14T13:30:02.708Z,13.90
2022-11-14T13:32:58.987Z,15.05
2022-11-14T13:35:46.848Z,13.73
2022-11-14T13:38:41.661Z,12.85
2022-11-14T13:41:37.234Z,12.00
2022-11-14T13:44:53.308Z,12.10
2022-11-14T13:47:52.458Z,12.70
2022-11-14T13:50:22.347Z,11.63
2022-11-14T13:52:54.446Z,12.13
2022-11-14T13:55:24.521Z,12.90
2022-11-14T13:58:02.709Z,11.35
2022-11-14T14:00:32.355Z,12.05
2022-11-14T14:03:18.122Z,11.75
2022-11-14T14:06:06.393Z,12.70
2022-11-14T14:08:49.930Z,11.85
2022-11-14T14:11:49.181Z,12.18
2022-11-14T14:14:28.996Z,11.63
2022-11-14T14:16:59.898Z,11.68
2022-11-14T14:19:37.689Z,11.60
2022-11-14T14:22:09.709Z,15.20
2022-11-14T14:24:49.879Z,13.73
2022-11-14T14:27:22.191Z,11.23
2022-11-14T14:29:56.193Z,10.93
2022-11-14T14:32:26.375Z,11.75
2022-11-14T14:34:58.568Z,12.10
2022-11-14T14:37:28.866Z,11.38
2022-11-14T14:40:01.608Z,11.27
2022-11-14T14:42:35.139Z,11.40
2022-11-14T14:45:04.852Z,11.40
2022-11-14T14:47:37.569Z,10.95
2022-11-14T14:50:09.440Z,10.95
2022-11-14T14:52:39.714Z,11.13
2022-11-14T14:55:24.040Z,10.47
2022-11-14T14:57:53.514Z,10.02
2022-11-14T15:00:26.101Z,10.30
2022-11-14T15:02:56.134Z,11.05
2022-11-14T15:05:26.335Z,10.35
2022-11-14T15:07:57.665Z,10.17
2022-11-14T15:10:31.874Z,11.05
2022-11-14T15:13:01.400Z,10.40
2022-11-14T15:15:31.157Z,10.50
2022-11-14T15:18:09.798Z,10.98
2022-11-14T15:20:39.282Z,10.07
2022-11-14T15:23:09.517Z,9.85
2022-11-14T15:25:41.667Z,10.13
2022-11-14T15:28:18.765Z,9.65
2022-11-14T15:30:59.036Z,9.90
2022-11-14T15:33:32.093Z,9.53
2022-11-14T15:36:09.190Z,9.15
2022-11-14T15:38:45.895Z,9.55
2022-11-14T15:41:24.790Z,10.70
2022-11-14T15:43:55.323Z,10.77
2022-11-14T15:46:42.394Z,10.25
2022-11-14T15:49:13.240Z,10.38
2022-11-14T15:51:44.713Z,10.00
2022-11-14T15:54:30.934Z,10.18
2022-11-14T15:57:04.292Z,10.07
2022-11-14T15:59:35.110Z,10.98
2022-11-14T16:02:07.117Z,9.93
2022-11-14T16:04:37.157Z,9.98
2022-11-14T16:07:06.746Z,9.75
2022-11-14T16:09:36.223Z,10.13
2022-11-14T16:12:08.622Z,10.48
2022-11-14T16:14:38.161Z,10.10
2022-11-14T16:17:07.665Z,10.90
2022-11-14T16:19:37.149Z,10.18
2022-11-14T16:22:06.605Z,10.45
2022-11-14T16:24:36.117Z,10.93
2022-11-14T16:27:08.217Z,11.27
2022-11-14T16:29:37.717Z,10.52
2022-11-14T16:32:07.421Z,10.50
2022-11-14T16:34:36.875Z,10.38
2022-11-14T16:37:06.358Z,11.15
2022-11-14T16:39:35.856Z,10.80
2022-11-14T16:42:08.492Z,10.00
2022-11-14T16:44:42.724Z,10.85
2022-11-14T16:47:15.429Z,10.43
2022-11-14T16:49:44.907Z,11.30
2022-11-14T16:52:16.544Z,10.70
2022-11-14T16:54:46.377Z,10.90
2022-11-14T16:57:18.436Z,11.23
2022-11-14T16:59:48.017Z,11.10
2022-11-14T17:02:18.338Z,11.07
2022-11-14T17:04:47.926Z,11.38
2022-11-14T17:07:21.701Z,11.10
2022-11-14T17:09:52.407Z,11.20
2022-11-14T17:12:24.543Z,12.05
2022-11-14T17:14:54.581Z,11.07
2022-11-14T17:17:24.092Z,11.70
2022-11-14T17:19:53.545Z,13.95
2022-11-14T17:22:23.046Z,11.15
2022-11-14T17:24:52.495Z,11.73
2022-11-14T17:27:24.606Z,10.90
2022-11-14T17:29:54.370Z,11.70
2022-11-14T17:32:23.825Z,11.20
2022-11-14T17:34:53.334Z,11.38
2022-11-14T17:37:22.800Z,11.52
2022-11-14T17:39:52.275Z,11.32
2022-11-14T17:42:24.350Z,12.00
2022-11-14T17:44:53.817Z,11.25
2022-11-14T17:47:23.296Z,12.13
2022-11-14T17:49:52.844Z,11.80
2022-11-14T17:52:25.207Z,11.98
2022-11-14T17:54:54.684Z,11.80
2022-11-14T17:57:26.736Z,12.63
2022-11-14T17:59:56.275Z,11.52
2022-11-14T18:02:25.781Z,12.30
2022-11-14T18:04:55.274Z,13.20
2022-11-14T18:07:24.799Z,11.65
2022-11-14T18:09:54.368Z,17.00
2022-11-14T18:12:26.506Z,14.57
2022-11-14T18:14:55.977Z,14.90
2022-11-14T18:17:25.517Z,15.13
2022-11-14T18:19:56.199Z,12.05
2022-11-14T18:22:25.693Z,12.52
2022-11-14T18:24:55.225Z,12.48
2022-11-14T18:27:27.282Z,12.20
2022-11-14T18:30:07.942Z,12.93
2022-11-14T18:32:43.059Z,11.82
2022-11-14T18:35:12.744Z,14.05
2022-11-14T18:37:42.187Z,14.68
2022-11-14T18:40:16.691Z,17.25
2022-11-14T18:42:49.048Z,16.85
2022-11-14T18:45:18.670Z,14.52
2022-11-14T18:47:48.124Z,12.75
2022-11-14T18:50:17.663Z,12.38
2022-11-14T18:52:47.136Z,12.82
2022-11-14T18:55:16.821Z,12.30
2022-11-14T18:57:48.838Z,12.23
2022-11-14T19:00:19.027Z,12.27
2022-11-14T19:02:52.239Z,12.20
2022-11-14T19:05:21.958Z,12.07
2022-11-14T19:07:51.430Z,11.32
2022-11-14T19:10:21.112Z,11.40
2022-11-14T19:12:53.144Z,11.52
2022-11-14T19:15:22.638Z,13.55
2022-11-14T19:17:52.103Z,13.55
2022-11-14T19:20:21.735Z,13.65
2022-11-14T19:22:51.424Z,12.80
2022-11-14T19:25:20.983Z,15.07
2022-11-14T19:27:55.238Z,14.23
2022-11-14T19:30:24.786Z,13.65
2022-11-14T19:32:54.401Z,15.48
2022-11-14T19:35:23.914Z,15.13
2022-11-14T19:37:53.356Z,16.33
2022-11-14T19:40:22.796Z,16.10
2022-11-14T19:43:01.909Z,15.35
2022-11-14T19:45:31.422Z,14.43
2022-11-14T19:48:00.864Z,14.68
2022-11-14T19:50:30.304Z,13.93
2022-11-14T19:53:00.028Z,13.95
2022-11-14T19:55:29.505Z,14.05
2022-11-14T19:58:01.634Z,14.45
2022-11-14T20:00:31.931Z,14.02
2022-11-14T20:03:01.385Z,13.10
2022-11-14T20:05:30.831Z,12.90
2022-11-14T20:08:00.305Z,13.68
2022-11-14T20:10:29.747Z,14.23
2022-11-14T20:13:01.804Z,14.00
2022-11-14T20:15:32.284Z,14.20
2022-11-14T20:18:01.740Z,17.45
2022-11-14T20:20:31.167Z,14.35
2022-11-14T20:23:00.647Z,14.80
2022-11-14T20:25:30.105Z,13.25
2022-11-14T20:28:02.332Z,13.18
2022-11-14T20:30:31.806Z,13.90
2022-11-14T20:33:01.290Z,13.15
2022-11-14T20:35:30.802Z,14.88
2022-11-14T20:38:04.262Z,14.02
2022-11-14T20:40:34.251Z,15.18
2022-11-14T20:43:07.245Z,17.52
2022-11-14T20:45:36.723Z,17.13
2022-11-14T20:48:06.546Z,17.13
2022-11-14T20:50:36.031Z,17.27
2022-11-14T20:53:05.527Z,17.73
2022-11-14T20:55:34.976Z,17.70
2022-11-14T20:58:07.045Z,17.45
2022-11-14T21:00:36.540Z,17.88
2022-11-14T21:03:06.027Z,14.35
2022-11-14T21:05:35.453Z,13.68
2022-11-14T21:08:04.892Z,16.20
2022-11-14T21:10:50.748Z,15.30
2022-11-14T21:13:39.234Z,14.82
2022-11-14T21:16:10.152Z,14.32
2022-11-14T21:18:45.178Z,14.45
2022-11-14T21:21:18.535Z,14.82
2022-11-14T21:23:48.243Z,14.93
2022-11-14T21:26:18.502Z,14.82
2022-11-14T21:28:51.739Z,14.67
2022-11-14T21:31:22.581Z,16.88
2022-11-14T21:33:52.763Z,15.80
2022-11-14T21:36:43.810Z,17.30
2022-11-14T21:39:14.961Z,16.42
2022-11-14T21:41:45.295Z,13.48
2022-11-14T21:44:18.040Z,13.07
2022-11-14T21:46:49.582Z,12.43
2022-11-14T21:49:19.234Z,13.95
2022-11-14T21:51:48.937Z,13.02
2022-11-14T21:54:18.489Z,13.18
2022-11-14T21:56:47.932Z,12.77
2022-11-14T21:59:23.863Z,12.77
2022-11-14T22:02:06.088Z,12.50
2022-11-14T22:04:35.802Z,11.88
2022-11-14T22:07:07.595Z,12.20
2022-11-14T22:09:42.592Z,13.02
2022-11-14T22:12:14.534Z,13.50
2022-11-14T22:14:46.579Z,13.88
2022-11-14T22:17:16.020Z,14.60
2022-11-14T22:19:45.487Z,14.02
2022-11-14T22:22:14.960Z,14.15
2022-11-14T22:24:44.422Z,14.95
2022-11-14T22:27:13.895Z,15.68
2022-11-14T22:29:45.948Z,14.52
2022-11-14T22:32:15.428Z,14.85
2022-11-14T22:34:44.886Z,14.55
2022-11-14T22:37:14.345Z,13.13
2022-11-14T22:39:43.804Z,12.40
2022-11-14T22:42:13.436Z,12.88
2022-11-14T22:44:42.933Z,12.77
2022-11-14T22:47:15.002Z,14.00
2022-11-14T22:49:44.442Z,13.82
2022-11-14T22:52:13.871Z,13.52
2022-11-14T22:54:43.339Z,13.63
2022-11-14T22:57:12.816Z,14.43
2022-11-14T22:59:42.273Z,14.25
2022-11-14T23:02:11.734Z,14.88
2022-11-14T23:04:43.807Z,16.00
2022-11-14T23:07:13.354Z,16.83
2022-11-14T23:09:43.710Z,17.30
2022-11-14T23:12:13.437Z,16.58
2022-11-14T23:14:42.895Z,16.48
2022-11-14T23:17:12.402Z,17.35
2022-11-14T23:19:44.448Z,16.92
2022-11-14T23:22:13.929Z,15.48
2022-11-14T23:24:43.393Z,16.67
2022-11-14T23:27:12.854Z,16.67
2022-11-14T23:29:42.302Z,16.98
2022-11-14T23:32:11.754Z,15.95
2022-11-14T23:34:43.805Z,16.42
2022-11-14T23:37:13.284Z,16.05
2022-11-14T23:39:42.785Z,15.50
2022-11-14T23:42:12.318Z,13.63
2022-11-14T23:44:41.912Z,13.98
2022-11-14T23:47:11.364Z,12.95
2022-11-14T23:49:40.842Z,13.70
2022-11-14T23:52:12.845Z,13.75
2022-11-14T23:54:42.328Z,13.73
2022-11-14T23:57:11.869Z,13.60
2022-11-14T23:59:41.322Z,14.18
